Terminal Aerodrome Forecast
Issued by NWS

Home | Current Version | Previous Version | Text Only | Print | Product List | Glossary On
Versions: 1 2 3 4 5 6 7 8 9 10 11 12 13 14 15 16 17 18 19 20 21 22 23 24 25 26 27 28 29 30 31 32 33 34 35 36 37 38 39 40
000
FTUS46 KPQR 290249 AAA
TAFONP
TAF AMD
KONP 290249Z 2903/2924 34012G22KT 3SM RA BR SCT008 OVC012
     FM290500 32012KT 5SM -SHRA SCT020 BKN035 OVC050
     FM291600 34011KT P6SM VCSH SCT035 BKN050
     FM292000 36011KT P6SM SCT050=

USA.gov is the U.S. government's official web portal to all federal, state and local government web resources and services.